sensor_id;sensor_type;location;lat;lon;timestamp;pressure;altitude;pressure_sealevel;temperature;humidity
69187;BME280;56301;56.864;60.554;2023-02-19T00:01:22;98358.75;;;24.66;19.45
69187;BME280;56301;56.864;60.554;2023-02-19T00:03:48;98366.00;;;24.65;21.00
69187;BME280;56301;56.864;60.554;2023-02-19T00:06:11;98365.81;;;24.67;18.02
69187;BME280;56301;56.864;60.554;2023-02-19T00:08:34;98366.66;;;24.67;20.03
69187;BME280;56301;56.864;60.554;2023-02-19T00:11:01;98358.94;;;24.64;20.40
69187;BME280;56301;56.864;60.554;2023-02-19T00:13:24;98357.25;;;24.63;18.87
69187;BME280;56301;56.864;60.554;2023-02-19T00:15:46;98353.72;;;24.63;18.53
69187;BME280;56301;56.864;60.554;2023-02-19T00:18:09;98353.91;;;24.61;19.51
69187;BME280;56301;56.864;60.554;2023-02-19T00:20:31;98352.69;;;24.64;18.73
69187;BME280;56301;56.864;60.554;2023-02-19T00:22:54;98352.22;;;24.60;18.59
69187;BME280;56301;56.864;60.554;2023-02-19T00:25:16;98345.91;;;24.53;19.87
69187;BME280;56301;56.864;60.554;2023-02-19T00:27:39;98352.09;;;24.47;20.48
69187;BME280;56301;56.864;60.554;2023-02-19T00:30:01;98346.50;;;24.48;21.32
69187;BME280;56301;56.864;60.554;2023-02-19T00:32:24;98344.63;;;24.49;20.62
69187;BME280;56301;56.864;60.554;2023-02-19T00:34:46;98343.78;;;24.48;20.96
69187;BME280;56301;56.864;60.554;2023-02-19T00:37:08;98346.66;;;24.47;21.45
69187;BME280;56301;56.864;60.554;2023-02-19T00:39:31;98342.97;;;24.48;19.40
69187;BME280;56301;56.864;60.554;2023-02-19T00:41:53;98343.59;;;24.50;20.22
69187;BME280;56301;56.864;60.554;2023-02-19T00:44:16;98334.72;;;24.56;20.38
69187;BME280;56301;56.864;60.554;2023-02-19T00:46:45;98321.38;;;24.55;17.82
69187;BME280;56301;56.864;60.554;2023-02-19T00:49:09;98335.16;;;24.60;17.54
69187;BME280;56301;56.864;60.554;2023-02-19T00:51:35;98341.63;;;24.59;17.95
69187;BME280;56301;56.864;60.554;2023-02-19T00:53:58;98336.66;;;24.62;17.87
69187;BME280;56301;56.864;60.554;2023-02-19T00:56:20;98320.22;;;24.64;17.68
69187;BME280;56301;56.864;60.554;2023-02-19T00:58:43;98326.47;;;24.64;17.42
69187;BME280;56301;56.864;60.554;2023-02-19T01:01:06;98322.94;;;24.64;16.88
69187;BME280;56301;56.864;60.554;2023-02-19T01:03:28;98323.75;;;24.64;16.66
69187;BME280;56301;56.864;60.554;2023-02-19T01:05:51;98326.47;;;24.64;16.92
69187;BME280;56301;56.864;60.554;2023-02-19T01:08:14;98329.16;;;24.64;16.75
69187;BME280;56301;56.864;60.554;2023-02-19T01:10:37;98344.56;;;24.64;16.86
69187;BME280;56301;56.864;60.554;2023-02-19T01:12:59;98330.38;;;24.62;16.84
69187;BME280;56301;56.864;60.554;2023-02-19T01:15:22;98334.97;;;24.61;16.31
69187;BME280;56301;56.864;60.554;2023-02-19T01:17:44;98330.38;;;24.62;16.64
69187;BME280;56301;56.864;60.554;2023-02-19T01:20:07;98335.34;;;24.58;16.55
69187;BME280;56301;56.864;60.554;2023-02-19T01:22:29;98334.72;;;24.56;16.79
69187;BME280;56301;56.864;60.554;2023-02-19T01:24:52;98334.06;;;24.54;17.23
69187;BME280;56301;56.864;60.554;2023-02-19T01:27:15;98326.34;;;24.51;17.31
69187;BME280;56301;56.864;60.554;2023-02-19T01:29:37;98321.13;;;24.49;17.73
69187;BME280;56301;56.864;60.554;2023-02-19T01:32:01;98324.47;;;24.52;17.89
69187;BME280;56301;56.864;60.554;2023-02-19T01:34:23;98320.94;;;24.51;18.52
69187;BME280;56301;56.864;60.554;2023-02-19T01:36:46;98321.97;;;24.50;17.83
69187;BME280;56301;56.864;60.554;2023-02-19T01:39:09;98320.50;;;24.47;18.27
69187;BME280;56301;56.864;60.554;2023-02-19T01:41:33;98324.88;;;24.48;17.29
69187;BME280;56301;56.864;60.554;2023-02-19T01:46:29;98317.66;;;24.56;16.45
69187;BME280;56301;56.864;60.554;2023-02-19T01:48:52;98318.50;;;24.56;16.55
69187;BME280;56301;56.864;60.554;2023-02-19T01:51:16;98317.00;;;24.54;16.61
69187;BME280;56301;56.864;60.554;2023-02-19T01:53:44;98310.13;;;24.51;16.80
69187;BME280;56301;56.864;60.554;2023-02-19T01:56:07;98310.97;;;24.52;16.67
69187;BME280;56301;56.864;60.554;2023-02-19T01:58:32;98316.53;;;24.50;16.59
69187;BME280;56301;56.864;60.554;2023-02-19T02:00:55;98307.81;;;24.48;16.49
69187;BME280;56301;56.864;60.554;2023-02-19T02:03:18;98315.53;;;24.51;16.47
69187;BME280;56301;56.864;60.554;2023-02-19T02:05:43;98321.97;;;24.50;16.57
69187;BME280;56301;56.864;60.554;2023-02-19T02:08:07;98323.81;;;24.49;16.96
69187;BME280;56301;56.864;60.554;2023-02-19T02:10:29;98324.66;;;24.50;17.79
69187;BME280;56301;56.864;60.554;2023-02-19T02:12:55;98329.44;;;24.48;16.63
69187;BME280;56301;56.864;60.554;2023-02-19T02:15:18;98327.13;;;24.45;16.53
69187;BME280;56301;56.864;60.554;2023-02-19T02:17:55;98330.84;;;24.44;17.20
69187;BME280;56301;56.864;60.554;2023-02-19T02:23:15;98340.81;;;24.43;17.33
69187;BME280;56301;56.864;60.554;2023-02-19T02:31:01;98339.69;;;24.38;17.89
69187;BME280;56301;56.864;60.554;2023-02-19T02:33:35;98340.72;;;24.37;17.24
69187;BME280;56301;56.864;60.554;2023-02-19T02:36:12;98341.56;;;24.37;17.32
69187;BME280;56301;56.864;60.554;2023-02-19T02:38:39;98342.78;;;24.35;16.76
69187;BME280;56301;56.864;60.554;2023-02-19T02:41:03;98337.38;;;24.35;16.69
69187;BME280;56301;56.864;60.554;2023-02-19T02:43:27;98335.72;;;24.34;16.65
69187;BME280;56301;56.864;60.554;2023-02-19T02:45:49;98336.53;;;24.34;16.95
69187;BME280;56301;56.864;60.554;2023-02-19T02:50:49;98337.75;;;24.32;18.65
69187;BME280;56301;56.864;60.554;2023-02-19T02:53:15;98345.03;;;24.31;19.65
69187;BME280;56301;56.864;60.554;2023-02-19T02:55:40;98341.88;;;24.27;19.13
69187;BME280;56301;56.864;60.554;2023-02-19T02:58:05;98342.53;;;24.30;20.04
69187;BME280;56301;56.864;60.554;2023-02-19T03:00:28;98349.78;;;24.29;19.58
69187;BME280;56301;56.864;60.554;2023-02-19T03:03:11;98352.31;;;24.31;20.21
69187;BME280;56301;56.864;60.554;2023-02-19T03:05:34;98348.94;;;24.29;20.10
69187;BME280;56301;56.864;60.554;2023-02-19T03:10:25;98348.47;;;24.40;18.50
69187;BME280;56301;56.864;60.554;2023-02-19T03:12:49;98350.16;;;24.41;17.54
69187;BME280;56301;56.864;60.554;2023-02-19T03:15:13;98344.75;;;24.41;17.27
69187;BME280;56301;56.864;60.554;2023-02-19T03:18:02;98350.34;;;24.39;16.80
69187;BME280;56301;56.864;60.554;2023-02-19T03:20:23;98342.88;;;24.41;18.28
69187;BME280;56301;56.864;60.554;2023-02-19T03:22:46;98346.63;;;24.40;16.28
69187;BME280;56301;56.864;60.554;2023-02-19T03:25:15;98346.16;;;24.37;16.41
69187;BME280;56301;56.864;60.554;2023-02-19T03:27:40;98346.31;;;24.35;16.48
69187;BME280;56301;56.864;60.554;2023-02-19T03:30:07;98355.47;;;24.34;16.63
69187;BME280;56301;56.864;60.554;2023-02-19T03:35:02;98348.56;;;24.32;15.84
69187;BME280;56301;56.864;60.554;2023-02-19T03:37:37;98340.28;;;24.33;15.96
69187;BME280;56301;56.864;60.554;2023-02-19T03:40:03;98349.41;;;24.32;16.06
69187;BME280;56301;56.864;60.554;2023-02-19T03:42:46;98348.19;;;24.35;15.49
69187;BME280;56301;56.864;60.554;2023-02-19T03:50:24;98344.81;;;24.33;15.69
69187;BME280;56301;56.864;60.554;2023-02-19T03:57:38;98342.22;;;24.39;15.96
69187;BME280;56301;56.864;60.554;2023-02-19T04:00:11;98357.25;;;24.42;16.81
69187;BME280;56301;56.864;60.554;2023-02-19T04:07:23;98344.38;;;24.44;17.74
69187;BME280;56301;56.864;60.554;2023-02-19T04:09:47;98355.00;;;24.45;17.60
69187;BME280;56301;56.864;60.554;2023-02-19T04:12:14;98359.56;;;24.45;17.42
69187;BME280;56301;56.864;60.554;2023-02-19T04:14:38;98356.66;;;24.46;17.45
69187;BME280;56301;56.864;60.554;2023-02-19T04:17:08;98362.28;;;24.45;17.97
69187;BME280;56301;56.864;60.554;2023-02-19T04:19:36;98367.47;;;24.46;18.27
69187;BME280;56301;56.864;60.554;2023-02-19T04:21:59;98353.94;;;24.46;18.36
69187;BME280;56301;56.864;60.554;2023-02-19T04:24:27;98367.09;;;24.49;19.06
69187;BME280;56301;56.864;60.554;2023-02-19T04:26:51;98364.59;;;24.48;17.84
69187;BME280;56301;56.864;60.554;2023-02-19T04:29:14;98362.06;;;24.46;18.03
69187;BME280;56301;56.864;60.554;2023-02-19T04:31:36;98362.84;;;24.40;20.81
69187;BME280;56301;56.864;60.554;2023-02-19T04:33:59;98358.63;;;24.38;20.48
69187;BME280;56301;56.864;60.554;2023-02-19T04:36:21;98361.31;;;24.38;19.36
69187;BME280;56301;56.864;60.554;2023-02-19T04:38:44;98360.50;;;24.37;20.28
69187;BME280;56301;56.864;60.554;2023-02-19T04:41:07;98355.91;;;24.38;19.45
69187;BME280;56301;56.864;60.554;2023-02-19T04:43:29;98364.03;;;24.38;20.25
69187;BME280;56301;56.864;60.554;2023-02-19T04:45:52;98358.44;;;24.39;19.70
69187;BME280;56301;56.864;60.554;2023-02-19T04:48:14;98353.03;;;24.39;20.61
69187;BME280;56301;56.864;60.554;2023-02-19T04:50:37;98355.91;;;24.38;19.89
69187;BME280;56301;56.864;60.554;2023-02-19T04:52:59;98359.94;;;24.42;20.42
69187;BME280;56301;56.864;60.554;2023-02-19T04:55:22;98356.19;;;24.43;20.87
69187;BME280;56301;56.864;60.554;2023-02-19T04:57:44;98364.03;;;24.38;19.59
69187;BME280;56301;56.864;60.554;2023-02-19T05:00:07;98362.38;;;24.37;20.14
69187;BME280;56301;56.864;60.554;2023-02-19T05:02:38;98365.81;;;24.31;21.18
69187;BME280;56301;56.864;60.554;2023-02-19T05:05:00;98366.88;;;24.30;19.23
69187;BME280;56301;56.864;60.554;2023-02-19T05:07:23;98365.16;;;24.29;20.45
69187;BME280;56301;56.864;60.554;2023-02-19T05:09:45;98364.53;;;24.26;20.29
69187;BME280;56301;56.864;60.554;2023-02-19T05:12:08;98360.13;;;24.25;20.47
69187;BME280;56301;56.864;60.554;2023-02-19T05:14:30;98365.53;;;24.25;21.61
69187;BME280;56301;56.864;60.554;2023-02-19T05:16:53;98362.66;;;24.27;20.80
69187;BME280;56301;56.864;60.554;2023-02-19T05:19:15;98365.75;;;24.24;20.41
69187;BME280;56301;56.864;60.554;2023-02-19T05:21:38;98369.28;;;24.24;21.73
69187;BME280;56301;56.864;60.554;2023-02-19T05:24:00;98368.84;;;24.57;20.80
69187;BME280;56301;56.864;60.554;2023-02-19T05:26:23;98376.59;;;24.82;20.36
69187;BME280;56301;56.864;60.554;2023-02-19T05:28:46;98367.56;;;24.96;17.72
69187;BME280;56301;56.864;60.554;2023-02-19T05:31:09;98370.78;;;24.63;18.22
69187;BME280;56301;56.864;60.554;2023-02-19T05:33:32;98367.56;;;24.38;22.04
69187;BME280;56301;56.864;60.554;2023-02-19T05:35:54;98366.44;;;24.33;18.88
69187;BME280;56301;56.864;60.554;2023-02-19T05:38:17;98365.66;;;24.17;21.15
69187;BME280;56301;56.864;60.554;2023-02-19T05:40:39;98357.38;;;24.19;19.72
69187;BME280;56301;56.864;60.554;2023-02-19T05:43:02;98357.44;;;24.25;19.25
69187;BME280;56301;56.864;60.554;2023-02-19T05:45:25;98365.53;;;24.25;19.38
69187;BME280;56301;56.864;60.554;2023-02-19T05:47:47;98356.59;;;24.25;19.71
69187;BME280;56301;56.864;60.554;2023-02-19T05:50:10;98323.38;;;24.10;19.22
69187;BME280;56301;56.864;60.554;2023-02-19T05:52:32;98358.22;;;23.60;18.69
69187;BME280;56301;56.864;60.554;2023-02-19T05:54:55;98360.03;;;23.83;19.95
69187;BME280;56301;56.864;60.554;2023-02-19T05:57:17;98355.34;;;24.06;20.50
69187;BME280;56301;56.864;60.554;2023-02-19T05:59:40;98349.13;;;24.42;20.83
69187;BME280;56301;56.864;60.554;2023-02-19T06:02:02;98359.44;;;24.53;22.20
69187;BME280;56301;56.864;60.554;2023-02-19T06:04:25;98352.47;;;24.65;22.81
69187;BME280;56301;56.864;60.554;2023-02-19T06:06:47;98349.91;;;24.79;23.32
69187;BME280;56301;56.864;60.554;2023-02-19T06:09:10;98347.03;;;24.80;23.68
69187;BME280;56301;56.864;60.554;2023-02-19T06:11:33;98358.41;;;24.97;24.71
69187;BME280;56301;56.864;60.554;2023-02-19T06:13:56;98353.69;;;25.06;25.65
69187;BME280;56301;56.864;60.554;2023-02-19T06:16:18;98348.66;;;25.03;25.76
69187;BME280;56301;56.864;60.554;2023-02-19T06:18:40;98348.47;;;25.04;25.95
69187;BME280;56301;56.864;60.554;2023-02-19T06:21:04;98347.50;;;25.12;25.70
69187;BME280;56301;56.864;60.554;2023-02-19T06:23:27;98333.78;;;25.13;26.04
69187;BME280;56301;56.864;60.554;2023-02-19T06:25:50;98339.84;;;25.15;26.35
69187;BME280;56301;56.864;60.554;2023-02-19T06:28:12;98338.47;;;25.05;26.82
69187;BME280;56301;56.864;60.554;2023-02-19T06:30:35;98339.59;;;25.10;27.76
69187;BME280;56301;56.864;60.554;2023-02-19T06:32:58;98340.94;;;25.21;26.63
69187;BME280;56301;56.864;60.554;2023-02-19T06:35:20;98338.66;;;25.25;26.82
69187;BME280;56301;56.864;60.554;2023-02-19T06:37:45;98338.28;;;25.28;26.60
69187;BME280;56301;56.864;60.554;2023-02-19T06:40:07;98334.53;;;25.29;26.71
69187;BME280;56301;56.864;60.554;2023-02-19T06:42:30;98334.31;;;25.30;27.36
69187;BME280;56301;56.864;60.554;2023-02-19T06:44:53;98334.56;;;25.35;27.70
69187;BME280;56301;56.864;60.554;2023-02-19T06:47:15;98337.13;;;25.43;27.66
69187;BME280;56301;56.864;60.554;2023-02-19T06:49:38;98332.59;;;25.51;27.66
69187;BME280;56301;56.864;60.554;2023-02-19T06:52:02;98340.94;;;25.56;28.07
69187;BME280;56301;56.864;60.554;2023-02-19T06:54:25;98322.25;;;25.67;28.11
69187;BME280;56301;56.864;60.554;2023-02-19T06:56:47;98319.78;;;25.73;27.92
69187;BME280;56301;56.864;60.554;2023-02-19T06:59:13;98317.00;;;25.59;28.79
69187;BME280;56301;56.864;60.554;2023-02-19T07:01:36;98326.59;;;25.62;27.93
69187;BME280;56301;56.864;60.554;2023-02-19T07:03:59;98307.72;;;25.75;28.13
69187;BME280;56301;56.864;60.554;2023-02-19T07:06:22;98321.50;;;25.80;27.76
69187;BME280;56301;56.864;60.554;2023-02-19T07:08:45;98317.78;;;25.88;27.86
69187;BME280;56301;56.864;60.554;2023-02-19T07:11:07;98308.84;;;25.94;28.21
69187;BME280;56301;56.864;60.554;2023-02-19T07:13:30;98303.25;;;26.02;27.43
69187;BME280;56301;56.864;60.554;2023-02-19T07:16:02;98306.59;;;26.04;27.22
69187;BME280;56301;56.864;60.554;2023-02-19T07:18:25;98307.03;;;26.08;27.22
69187;BME280;56301;56.864;60.554;2023-02-19T07:20:47;98302.88;;;26.12;27.37
69187;BME280;56301;56.864;60.554;2023-02-19T07:23:10;98296.63;;;26.18;28.18
69187;BME280;56301;56.864;60.554;2023-02-19T07:25:32;98300.63;;;26.22;28.68
69187;BME280;56301;56.864;60.554;2023-02-19T07:27:55;98301.66;;;26.28;27.74
69187;BME280;56301;56.864;60.554;2023-02-19T07:30:17;98296.66;;;26.31;28.36
69187;BME280;56301;56.864;60.554;2023-02-19T07:32:40;98298.75;;;26.36;27.77
69187;BME280;56301;56.864;60.554;2023-02-19T07:35:03;98296.28;;;26.41;28.25
69187;BME280;56301;56.864;60.554;2023-02-19T07:37:25;98294.44;;;26.48;27.08
69187;BME280;56301;56.864;60.554;2023-02-19T07:39:48;98290.88;;;26.54;27.49
69187;BME280;56301;56.864;60.554;2023-02-19T07:42:10;98293.19;;;26.57;27.68
69187;BME280;56301;56.864;60.554;2023-02-19T07:44:33;98291.53;;;26.63;26.61
69187;BME280;56301;56.864;60.554;2023-02-19T07:46:55;98289.22;;;26.67;27.53
69187;BME280;56301;56.864;60.554;2023-02-19T07:49:18;98284.41;;;26.69;27.75
69187;BME280;56301;56.864;60.554;2023-02-19T07:51:40;98291.31;;;26.71;27.26
69187;BME280;56301;56.864;60.554;2023-02-19T07:54:03;98282.53;;;26.76;27.59
69187;BME280;56301;56.864;60.554;2023-02-19T07:56:25;98288.38;;;26.79;27.11
69187;BME280;56301;56.864;60.554;2023-02-19T07:58:48;98286.53;;;26.80;27.76
69187;BME280;56301;56.864;60.554;2023-02-19T08:03:33;98288.38;;;26.86;27.86
69187;BME280;56301;56.864;60.554;2023-02-19T08:05:56;98279.63;;;26.84;28.44
69187;BME280;56301;56.864;60.554;2023-02-19T08:08:18;98289.22;;;26.93;28.17
69187;BME280;56301;56.864;60.554;2023-02-19T08:10:41;98286.28;;;27.01;28.17
69187;BME280;56301;56.864;60.554;2023-02-19T08:13:03;98284.63;;;27.00;28.51
69187;BME280;56301;56.864;60.554;2023-02-19T08:15:26;98282.97;;;26.99;28.40
69187;BME280;56301;56.864;60.554;2023-02-19T08:17:48;98278.78;;;27.03;29.08
69187;BME280;56301;56.864;60.554;2023-02-19T08:20:11;98270.81;;;27.08;28.83
69187;BME280;56301;56.864;60.554;2023-02-19T08:22:33;98275.66;;;27.06;29.41
69187;BME280;56301;56.864;60.554;2023-02-19T08:24:55;98269.16;;;27.07;29.31
69187;BME280;56301;56.864;60.554;2023-02-19T08:27:18;98274.19;;;27.10;28.52
69187;BME280;56301;56.864;60.554;2023-02-19T08:29:40;98269.59;;;27.18;29.51
69187;BME280;56301;56.864;60.554;2023-02-19T08:32:03;98274.63;;;27.21;29.14
69187;BME280;56301;56.864;60.554;2023-02-19T08:34:25;98273.16;;;27.25;29.07
69187;BME280;56301;56.864;60.554;2023-02-19T08:36:48;98274.19;;;27.24;28.67
69187;BME280;56301;56.864;60.554;2023-02-19T08:39:10;98266.06;;;27.24;28.43
69187;BME280;56301;56.864;60.554;2023-02-19T08:41:32;98267.28;;;27.21;28.12
69187;BME280;56301;56.864;60.554;2023-02-19T08:43:55;98256.03;;;27.18;29.67
69187;BME280;56301;56.864;60.554;2023-02-19T08:46:17;98253.31;;;27.18;29.29
69187;BME280;56301;56.864;60.554;2023-02-19T08:48:40;98261.22;;;27.19;29.52
69187;BME280;56301;56.864;60.554;2023-02-19T08:51:03;98249.53;;;27.19;29.13
69187;BME280;56301;56.864;60.554;2023-02-19T08:53:26;98259.16;;;27.21;29.01
69187;BME280;56301;56.864;60.554;2023-02-19T08:55:49;98263.75;;;27.21;29.28
69187;BME280;56301;56.864;60.554;2023-02-19T08:58:11;98270.00;;;27.21;28.87
69187;BME280;56301;56.864;60.554;2023-02-19T09:00:33;98265.84;;;27.19;30.18
69187;BME280;56301;56.864;60.554;2023-02-19T09:02:56;98266.25;;;27.16;29.46
69187;BME280;56301;56.864;60.554;2023-02-19T09:05:19;98266.25;;;27.16;29.13
69187;BME280;56301;56.864;60.554;2023-02-19T09:07:41;98275.69;;;27.13;29.29
69187;BME280;56301;56.864;60.554;2023-02-19T09:10:04;98264.38;;;27.09;30.44
69187;BME280;56301;56.864;60.554;2023-02-19T09:12:26;98261.66;;;27.09;29.77
69187;BME280;56301;56.864;60.554;2023-02-19T09:14:49;98263.97;;;27.13;29.73
69187;BME280;56301;56.864;60.554;2023-02-19T09:17:12;98263.31;;;27.10;28.68
69187;BME280;56301;56.864;60.554;2023-02-19T09:19:34;98257.06;;;27.10;29.54
69187;BME280;56301;56.864;60.554;2023-02-19T09:21:57;98256.41;;;27.01;28.63
69187;BME280;56301;56.864;60.554;2023-02-19T09:24:20;98261.66;;;26.96;29.66
69187;BME280;56301;56.864;60.554;2023-02-19T09:26:42;98250.81;;;26.96;29.80
69187;BME280;56301;56.864;60.554;2023-02-19T09:29:05;98249.56;;;26.92;29.16
69187;BME280;56301;56.864;60.554;2023-02-19T09:31:27;98246.44;;;26.88;29.09
69187;BME280;56301;56.864;60.554;2023-02-19T09:33:50;98244.13;;;26.85;29.72
69187;BME280;56301;56.864;60.554;2023-02-19T09:36:13;98249.78;;;26.84;29.53
69187;BME280;56301;56.864;60.554;2023-02-19T09:38:36;98249.13;;;26.88;29.06
69187;BME280;56301;56.864;60.554;2023-02-19T09:40:58;98241.81;;;26.89;29.09
69187;BME280;56301;56.864;60.554;2023-02-19T09:43:27;98242.88;;;26.88;29.83
69187;BME280;56301;56.864;60.554;2023-02-19T09:45:50;98243.28;;;26.72;29.55
69187;BME280;56301;56.864;60.554;2023-02-19T09:48:20;98242.47;;;26.64;30.02
69187;BME280;56301;56.864;60.554;2023-02-19T09:50:44;98243.91;;;26.54;29.90
69187;BME280;56301;56.864;60.554;2023-02-19T09:53:14;98236.63;;;26.48;29.59
69187;BME280;56301;56.864;60.554;2023-02-19T09:55:38;98239.13;;;26.56;28.86
69187;BME280;56301;56.864;60.554;2023-02-19T09:58:05;98236.63;;;26.48;29.74
69187;BME280;56301;56.864;60.554;2023-02-19T10:00:30;98234.13;;;26.53;29.69
69187;BME280;56301;56.864;60.554;2023-02-19T10:02:59;98238.06;;;26.50;29.04
69187;BME280;56301;56.864;60.554;2023-02-19T10:08:18;98234.91;;;26.33;29.83
69187;BME280;56301;56.864;60.554;2023-02-19T10:10:40;98234.28;;;26.38;29.27
69187;BME280;56301;56.864;60.554;2023-02-19T10:13:10;98240.31;;;26.27;30.08
69187;BME280;56301;56.864;60.554;2023-02-19T10:15:51;98242.81;;;26.22;29.69
69187;BME280;56301;56.864;60.554;2023-02-19T10:18:16;98244.72;;;26.34;30.06
69187;BME280;56301;56.864;60.554;2023-02-19T10:20:39;98242.00;;;26.28;29.88
69187;BME280;56301;56.864;60.554;2023-02-19T10:23:02;98242.59;;;26.16;30.42
69187;BME280;56301;56.864;60.554;2023-02-19T10:25:25;98239.69;;;26.25;30.07
69187;BME280;56301;56.864;60.554;2023-02-19T10:27:48;98238.00;;;26.10;30.52
69187;BME280;56301;56.864;60.554;2023-02-19T10:30:17;98233.00;;;26.07;29.97
69187;BME280;56301;56.864;60.554;2023-02-19T10:32:41;98240.28;;;26.00;30.00
69187;BME280;56301;56.864;60.554;2023-02-19T10:35:19;98235.66;;;25.94;30.79
69187;BME280;56301;56.864;60.554;2023-02-19T10:37:45;98235.03;;;25.92;30.17
69187;BME280;56301;56.864;60.554;2023-02-19T10:40:15;98233.16;;;25.86;29.80
69187;BME280;56301;56.864;60.554;2023-02-19T10:42:38;98231.03;;;25.81;30.46
69187;BME280;56301;56.864;60.554;2023-02-19T10:45:11;98236.00;;;25.78;30.52
69187;BME280;56301;56.864;60.554;2023-02-19T10:47:38;98225.59;;;25.75;30.51
69187;BME280;56301;56.864;60.554;2023-02-19T10:50:14;98231.59;;;25.70;30.77
69187;BME280;56301;56.864;60.554;2023-02-19T10:52:40;98234.91;;;25.65;30.40
69187;BME280;56301;56.864;60.554;2023-02-19T10:55:19;98233.25;;;25.64;30.92
69187;BME280;56301;56.864;60.554;2023-02-19T10:57:45;98232.19;;;25.59;30.32
69187;BME280;56301;56.864;60.554;2023-02-19T11:02:36;98225.50;;;25.55;30.12
69187;BME280;56301;56.864;60.554;2023-02-19T11:07:30;98222.34;;;25.51;30.96
69187;BME280;56301;56.864;60.554;2023-02-19T11:09:53;98223.59;;;25.49;30.86
69187;BME280;56301;56.864;60.554;2023-02-19T11:12:22;98232.34;;;25.51;30.71
69187;BME280;56301;56.864;60.554;2023-02-19T11:14:45;98228.38;;;25.47;30.71
69187;BME280;56301;56.864;60.554;2023-02-19T11:17:15;98222.53;;;25.43;31.18
69187;BME280;56301;56.864;60.554;2023-02-19T11:19:42;98224.41;;;25.42;31.44
69187;BME280;56301;56.864;60.554;2023-02-19T11:22:18;98221.06;;;25.40;31.02
69187;BME280;56301;56.864;60.554;2023-02-19T11:24:41;98222.09;;;25.39;31.57
69187;BME280;56301;56.864;60.554;2023-02-19T11:27:14;98227.69;;;25.38;31.18
69187;BME280;56301;56.864;60.554;2023-02-19T11:29:38;98226.03;;;25.37;31.05
69187;BME280;56301;56.864;60.554;2023-02-19T11:34:42;98223.72;;;25.34;31.34
69187;BME280;56301;56.864;60.554;2023-02-19T11:37:09;98219.56;;;25.31;31.46
69187;BME280;56301;56.864;60.554;2023-02-19T11:39:32;98218.09;;;25.29;31.77
69187;BME280;56301;56.864;60.554;2023-02-19T11:47:14;98222.41;;;25.23;31.23
69187;BME280;56301;56.864;60.554;2023-02-19T11:49:47;98221.97;;;25.19;31.49
69187;BME280;56301;56.864;60.554;2023-02-19T11:57:08;98222.41;;;25.16;31.46
69187;BME280;56301;56.864;60.554;2023-02-19T12:07:06;98224.38;;;25.08;31.60
69187;BME280;56301;56.864;60.554;2023-02-19T12:09:35;98217.09;;;25.08;32.51
69187;BME280;56301;56.864;60.554;2023-02-19T12:19:40;98222.03;;;24.98;31.49
69187;BME280;56301;56.864;60.554;2023-02-19T12:27:16;98210.19;;;24.99;30.95
69187;BME280;56301;56.864;60.554;2023-02-19T12:34:40;98133.28;;;24.87;29.80
69187;BME280;56301;56.864;60.554;2023-02-19T12:42:02;98225.84;;;24.76;30.43
69187;BME280;56301;56.864;60.554;2023-02-19T12:44:37;98234.41;;;24.79;29.91
69187;BME280;56301;56.864;60.554;2023-02-19T12:47:00;98231.06;;;24.77;30.34
69187;BME280;56301;56.864;60.554;2023-02-19T12:49:30;98223.56;;;24.79;30.19
69187;BME280;56301;56.864;60.554;2023-02-19T12:52:06;98228.38;;;24.77;30.19
69187;BME280;56301;56.864;60.554;2023-02-19T12:59:19;98221.16;;;24.91;32.21
69187;BME280;56301;56.864;60.554;2023-02-19T13:01:50;98230.53;;;24.88;30.77
69187;BME280;56301;56.864;60.554;2023-02-19T13:04:24;98224.41;;;24.80;30.87
69187;BME280;56301;56.864;60.554;2023-02-19T13:06:52;98212.19;;;24.84;30.01
69187;BME280;56301;56.864;60.554;2023-02-19T13:09:19;98222.56;;;24.80;31.95
69187;BME280;56301;56.864;60.554;2023-02-19T13:11:47;98222.56;;;24.87;30.70
69187;BME280;56301;56.864;60.554;2023-02-19T13:14:16;98220.47;;;24.82;30.40
69187;BME280;56301;56.864;60.554;2023-02-19T13:16:44;98218.59;;;24.83;30.94
69187;BME280;56301;56.864;60.554;2023-02-19T13:19:08;98211.97;;;24.85;30.39
69187;BME280;56301;56.864;60.554;2023-02-19T13:21:31;98223.63;;;24.86;30.42
69187;BME280;56301;56.864;60.554;2023-02-19T13:23:55;98224.28;;;24.88;30.89
69187;BME280;56301;56.864;60.554;2023-02-19T13:28:58;98233.00;;;24.90;31.12
69187;BME280;56301;56.864;60.554;2023-02-19T13:36:19;98235.53;;;24.91;31.21
69187;BME280;56301;56.864;60.554;2023-02-19T13:38:45;98237.59;;;24.89;31.13
69187;BME280;56301;56.864;60.554;2023-02-19T13:41:18;98232.97;;;24.83;30.81
69187;BME280;56301;56.864;60.554;2023-02-19T13:43:41;98241.72;;;24.85;30.56
69187;BME280;56301;56.864;60.554;2023-02-19T13:46:05;98243.75;;;24.77;32.34
69187;BME280;56301;56.864;60.554;2023-02-19T13:56:07;98254.81;;;25.10;31.03
69187;BME280;56301;56.864;60.554;2023-02-19T13:58:56;98251.00;;;25.04;31.69
69187;BME280;56301;56.864;60.554;2023-02-19T14:01:30;98261.63;;;24.99;32.13
69187;BME280;56301;56.864;60.554;2023-02-19T14:04:15;98254.31;;;25.00;32.87
69187;BME280;56301;56.864;60.554;2023-02-19T14:24:46;98258.53;;;25.02;33.05
69187;BME280;56301;56.864;60.554;2023-02-19T14:27:09;98257.66;;;25.02;32.09
69187;BME280;56301;56.864;60.554;2023-02-19T14:29:31;98257.88;;;25.00;33.56
69187;BME280;56301;56.864;60.554;2023-02-19T14:31:55;98264.38;;;25.06;34.11
69187;BME280;56301;56.864;60.554;2023-02-19T14:34:18;98264.41;;;25.12;32.64
69187;BME280;56301;56.864;60.554;2023-02-19T14:36:57;98265.28;;;25.13;34.24
69187;BME280;56301;56.864;60.554;2023-02-19T14:39:22;98266.56;;;25.17;33.25
69187;BME280;56301;56.864;60.554;2023-02-19T14:41:49;98266.34;;;25.18;32.65